createdAt,value
2018-03-30T00:00:45.846Z,97212.20
2018-03-30T00:03:14.057Z,97207.88
2018-03-30T00:05:42.321Z,97207.74
2018-03-30T00:08:10.592Z,97199.33
2018-03-30T00:10:44.456Z,97197.23
2018-03-30T00:13:13.517Z,97198.25
2018-03-30T00:15:41.856Z,97197.77
2018-03-30T00:18:10.122Z,97205.52
2018-03-30T00:20:38.401Z,97208.06
2018-03-30T00:23:06.656Z,97201.73
2018-03-30T00:25:35.724Z,97204.01
2018-03-30T00:28:04.013Z,97201.75
2018-03-30T00:30:32.268Z,97199.39
2018-03-30T00:33:00.569Z,97202.09
2018-03-30T00:35:29.597Z,97197.30
2018-03-30T00:37:57.861Z,97191.22
2018-03-30T00:40:26.184Z,97199.45
2018-03-30T00:42:54.417Z,97192.53
2018-03-30T00:45:22.664Z,97197.77
2018-03-30T00:47:51.708Z,97193.73
2018-03-30T00:50:19.977Z,97197.10
2018-03-30T00:52:49.923Z,97194.88
2018-03-30T00:55:18.193Z,97189.05
2018-03-30T00:57:46.464Z,97187.84
2018-03-30T01:00:14.729Z,97187.85
2018-03-30T01:02:42.998Z,97189.36
2018-03-30T01:05:11.376Z,97185.93
2018-03-30T01:07:39.680Z,97181.08
2018-03-30T01:10:07.936Z,97179.81
2018-03-30T01:12:36.203Z,97163.33
2018-03-30T01:15:04.462Z,97166.95
2018-03-30T01:17:32.745Z,97160.27
2018-03-30T01:20:01.001Z,97151.08
2018-03-30T01:22:30.034Z,97160.52
2018-03-30T01:24:58.303Z,97151.02
2018-03-30T01:27:26.597Z,97153.95
2018-03-30T01:29:54.859Z,97146.77
2018-03-30T01:32:23.148Z,97144.88
2018-03-30T01:34:51.404Z,97142.23
2018-03-30T01:37:19.660Z,97140.08
2018-03-30T01:39:47.934Z,97137.02
2018-03-30T01:42:16.197Z,97135.39
2018-03-30T01:44:45.247Z,97136.17
2018-03-30T01:47:13.501Z,97131.20
2018-03-30T01:49:41.762Z,97140.03
2018-03-30T01:52:10.036Z,97140.62
2018-03-30T01:54:38.289Z,97130.59
2018-03-30T01:57:07.342Z,97131.98
2018-03-30T01:59:35.597Z,97124.23
2018-03-30T02:02:03.856Z,97127.78
2018-03-30T02:04:32.157Z,97123.52
2018-03-30T02:07:00.418Z,97130.18
2018-03-30T02:09:28.685Z,97122.44
2018-03-30T02:11:56.967Z,97122.07
2018-03-30T02:14:25.224Z,97112.87
2018-03-30T02:16:54.236Z,97114.63
2018-03-30T02:19:22.513Z,97110.64
2018-03-30T02:21:50.778Z,97106.58
2018-03-30T02:24:19.809Z,97110.09
2018-03-30T02:26:48.077Z,97102.36
2018-03-30T02:29:16.333Z,97097.52
2018-03-30T02:31:44.587Z,97101.81
2018-03-30T02:34:13.628Z,97096.94
2018-03-30T02:36:41.905Z,97090.88
2018-03-30T02:39:10.159Z,97087.53
2018-03-30T02:41:38.497Z,97085.17
2018-03-30T02:44:06.727Z,97095.16
2018-03-30T02:46:34.977Z,97088.84
2018-03-30T02:49:03.258Z,97095.27
2018-03-30T02:51:31.521Z,97099.55
2018-03-30T02:54:00.541Z,97096.25
2018-03-30T02:56:28.819Z,97096.17
2018-03-30T02:58:57.093Z,97090.61
2018-03-30T03:01:25.494Z,97088.72
2018-03-30T03:03:53.748Z,97092.03
2018-03-30T03:06:22.004Z,97082.53
2018-03-30T03:08:50.285Z,97083.31
2018-03-30T03:11:18.537Z,97085.12
2018-03-30T03:13:47.568Z,97077.67
2018-03-30T03:16:15.853Z,97085.42
2018-03-30T03:18:44.124Z,97084.11
2018-03-30T03:21:12.386Z,97080.34
2018-03-30T03:23:40.660Z,97080.09
2018-03-30T03:26:08.919Z,97082.98
2018-03-30T03:28:37.946Z,97091.02
2018-03-30T03:31:06.233Z,97084.30
2018-03-30T03:33:34.496Z,97083.31
2018-03-30T03:36:02.824Z,97089.03
2018-03-30T03:38:31.102Z,97087.76
2018-03-30T03:40:59.356Z,97085.20
2018-03-30T03:43:27.625Z,97084.40
2018-03-30T03:45:55.894Z,97086.22
2018-03-30T03:48:24.153Z,97083.80
2018-03-30T03:50:52.480Z,97080.16
2018-03-30T03:53:20.749Z,97080.98
2018-03-30T03:55:49.039Z,97080.73
2018-03-30T03:58:17.289Z,97080.25
2018-03-30T04:00:45.584Z,97073.79
2018-03-30T04:03:13.840Z,97073.01
2018-03-30T04:05:42.116Z,97079.85
2018-03-30T04:08:10.400Z,97078.59
2018-03-30T04:10:38.652Z,97074.09
2018-03-30T04:13:06.921Z,97071.20
2018-03-30T04:15:35.221Z,97063.27
2018-03-30T04:18:03.512Z,97074.92
2018-03-30T04:20:33.283Z,97071.98
2018-03-30T04:23:01.658Z,97073.00
2018-03-30T04:25:29.920Z,97066.34
2018-03-30T04:27:58.181Z,97067.10
2018-03-30T04:30:27.221Z,97061.20
2018-03-30T04:32:55.542Z,97067.20
2018-03-30T04:35:23.796Z,97064.78
2018-03-30T04:37:52.081Z,97059.60
2018-03-30T04:40:20.348Z,97063.66
2018-03-30T04:42:48.609Z,97053.36
2018-03-30T04:45:16.886Z,97052.28
2018-03-30T04:47:45.148Z,97051.97
2018-03-30T04:50:13.412Z,97045.74
2018-03-30T04:52:41.688Z,97047.70
2018-03-30T04:55:09.976Z,97042.59
2018-03-30T04:57:38.245Z,97040.16
2018-03-30T05:00:06.507Z,97042.72
2018-03-30T05:02:34.785Z,97044.35
2018-03-30T05:05:03.077Z,97037.44
2018-03-30T05:07:31.335Z,97043.40
2018-03-30T05:09:59.600Z,97044.78
2018-03-30T05:12:27.872Z,97045.84
2018-03-30T05:14:56.909Z,97041.95
2018-03-30T05:17:25.168Z,97042.92
2018-03-30T05:19:53.445Z,97034.57
2018-03-30T05:22:21.715Z,97045.38
2018-03-30T05:24:49.972Z,97032.05
2018-03-30T05:27:18.254Z,97037.57
2018-03-30T05:29:46.531Z,97036.50
2018-03-30T05:32:14.780Z,97037.88
2018-03-30T05:34:43.047Z,97041.06
2018-03-30T05:37:11.306Z,97034.16
2018-03-30T05:39:39.584Z,97040.57
2018-03-30T05:42:07.876Z,97029.86
2018-03-30T05:44:36.129Z,97028.85
2018-03-30T05:47:04.401Z,97027.70
2018-03-30T05:49:32.668Z,97028.64
2018-03-30T05:52:00.956Z,97041.47
2018-03-30T05:54:29.307Z,97041.52
2018-03-30T05:56:57.650Z,97038.27
2018-03-30T05:59:26.751Z,97036.69
2018-03-30T06:01:55.121Z,97044.94
2018-03-30T06:04:24.227Z,97040.48
2018-03-30T06:06:52.573Z,97041.19
2018-03-30T06:09:20.920Z,97051.80
2018-03-30T06:11:49.220Z,97047.69
2018-03-30T06:14:17.584Z,97044.98
2018-03-30T06:16:45.908Z,97044.25
2018-03-30T06:19:14.989Z,97046.05
2018-03-30T06:21:44.097Z,97049.88
2018-03-30T06:24:13.180Z,97049.97
2018-03-30T06:26:42.337Z,97042.30
2018-03-30T06:29:10.683Z,97044.50
2018-03-30T06:31:39.015Z,97041.18
2018-03-30T06:34:07.308Z,97041.22
2018-03-30T06:36:35.564Z,97036.84
2018-03-30T06:39:03.836Z,97039.16
2018-03-30T06:41:32.115Z,97035.59
2018-03-30T06:44:00.376Z,97036.34
2018-03-30T06:46:28.652Z,97036.56
2018-03-30T06:48:56.904Z,97037.83
2018-03-30T06:51:25.552Z,97028.61
2018-03-30T06:53:54.605Z,97024.05
2018-03-30T06:56:22.853Z,97024.30
2018-03-30T06:58:51.108Z,97018.92
2018-03-30T07:01:20.146Z,97018.18
2018-03-30T07:03:48.412Z,97016.10
2018-03-30T07:06:16.688Z,97018.72
2018-03-30T07:08:44.944Z,97016.22
2018-03-30T07:11:13.994Z,97008.38
2018-03-30T07:13:42.253Z,97015.68
2018-03-30T07:16:10.535Z,97019.55
2018-03-30T07:18:38.812Z,97022.16
2018-03-30T07:21:07.066Z,97023.09
2018-03-30T07:23:35.340Z,97022.69
2018-03-30T07:26:03.618Z,97019.80
2018-03-30T07:28:31.875Z,97022.39
2018-03-30T07:31:00.135Z,97018.65
2018-03-30T07:33:29.221Z,97016.14
2018-03-30T07:35:58.285Z,97015.73
2018-03-30T07:38:26.557Z,97006.00
2018-03-30T07:40:54.806Z,97003.87
2018-03-30T07:43:23.152Z,97001.30
2018-03-30T07:45:52.237Z,97002.14
2018-03-30T07:48:21.335Z,96995.31
2018-03-30T07:50:50.444Z,96991.09
2018-03-30T07:53:18.792Z,96983.88
2018-03-30T07:55:47.133Z,96986.77
2018-03-30T07:58:15.458Z,96978.23
2018-03-30T08:00:44.573Z,96973.88
2018-03-30T08:03:13.608Z,96969.61
2018-03-30T08:05:41.860Z,96964.06
2018-03-30T08:08:10.152Z,96961.86
2018-03-30T08:10:38.417Z,96962.34
2018-03-30T08:13:06.681Z,96960.54
2018-03-30T08:15:34.976Z,96957.23
2018-03-30T08:18:03.280Z,96952.93
2018-03-30T08:20:31.524Z,96946.46
2018-03-30T08:22:59.803Z,96948.62
2018-03-30T08:25:28.073Z,96945.58
2018-03-30T08:27:56.334Z,96939.99
2018-03-30T08:30:25.365Z,96942.02
2018-03-30T08:32:53.627Z,96939.84
2018-03-30T08:35:21.884Z,96943.74
2018-03-30T08:37:50.499Z,96937.58
2018-03-30T08:40:18.792Z,96938.72
2018-03-30T08:42:47.048Z,96936.05
2018-03-30T08:45:15.317Z,96935.78
2018-03-30T08:47:43.594Z,96934.81
2018-03-30T08:50:11.878Z,96933.74
2018-03-30T08:52:40.137Z,96934.41
2018-03-30T08:55:08.409Z,96922.48
2018-03-30T08:57:36.664Z,96925.19
2018-03-30T09:00:05.716Z,96925.34
2018-03-30T09:02:33.968Z,96920.78
2018-03-30T09:05:02.229Z,96909.84
2018-03-30T09:07:30.499Z,96915.15
2018-03-30T09:09:59.518Z,96914.58
2018-03-30T09:12:27.776Z,96904.81
2018-03-30T09:14:56.058Z,96890.67
2018-03-30T09:17:24.319Z,96886.30
2018-03-30T09:19:52.581Z,96885.41
2018-03-30T09:22:21.617Z,96880.37
2018-03-30T09:24:49.883Z,96874.76
2018-03-30T09:27:18.136Z,96879.66
2018-03-30T09:29:52.682Z,96874.61
2018-03-30T09:32:20.940Z,96866.16
2018-03-30T09:34:49.980Z,96861.98
2018-03-30T09:37:18.237Z,96860.69
2018-03-30T09:39:46.516Z,96859.65
2018-03-30T09:42:14.788Z,96856.23
2018-03-30T09:44:43.054Z,96851.00
2018-03-30T09:47:11.352Z,96847.65
2018-03-30T09:49:39.612Z,96849.75
2018-03-30T09:52:07.889Z,96840.66
2018-03-30T09:54:36.160Z,96836.19
2018-03-30T09:57:04.490Z,96828.55
2018-03-30T09:59:32.761Z,96831.59
2018-03-30T10:02:01.020Z,96816.35
2018-03-30T10:04:29.301Z,96824.30
2018-03-30T10:06:57.553Z,96822.56
2018-03-30T10:09:25.870Z,96817.93
2018-03-30T10:11:54.109Z,96810.56
2018-03-30T10:14:22.384Z,96808.86
2018-03-30T10:16:50.653Z,96802.89
2018-03-30T10:19:18.923Z,96799.56
2018-03-30T10:21:47.221Z,96790.92
2018-03-30T10:24:15.481Z,96789.11
2018-03-30T10:26:43.780Z,96785.73
2018-03-30T10:29:12.085Z,96780.01
2018-03-30T10:31:40.372Z,96785.02
2018-03-30T10:34:09.456Z,96780.87
2018-03-30T10:36:38.542Z,96768.08
2018-03-30T10:39:06.818Z,96761.25
2018-03-30T10:41:35.085Z,96759.96
2018-03-30T10:44:03.456Z,96762.11
2018-03-30T10:46:31.761Z,96752.59
2018-03-30T10:49:00.827Z,96758.65
2018-03-30T10:51:29.100Z,96751.42
2018-03-30T10:53:57.370Z,96739.84
2018-03-30T10:56:25.649Z,96735.14
2018-03-30T10:58:53.992Z,96733.17
2018-03-30T11:01:22.269Z,96715.34
2018-03-30T11:03:50.535Z,96715.80
2018-03-30T11:06:19.593Z,96703.05
2018-03-30T11:08:47.876Z,96698.58
2018-03-30T11:11:16.142Z,96687.92
2018-03-30T11:13:44.492Z,96666.05
2018-03-30T11:16:12.823Z,96657.36
2018-03-30T11:18:41.923Z,96656.55
2018-03-30T11:21:11.043Z,96652.22
2018-03-30T11:23:39.371Z,96644.36
2018-03-30T11:26:08.498Z,96626.98
2018-03-30T11:28:36.835Z,96618.02
2018-03-30T11:31:05.194Z,96615.17
2018-03-30T11:33:33.497Z,96609.41
2018-03-30T11:36:01.792Z,96608.91
2018-03-30T11:38:30.053Z,96620.50
2018-03-30T11:40:58.341Z,96630.52
2018-03-30T11:43:26.614Z,96626.88
2018-03-30T11:45:54.877Z,96622.73
2018-03-30T11:48:23.161Z,96627.33
2018-03-30T11:50:52.394Z,96625.44
2018-03-30T11:53:20.693Z,96623.50
2018-03-30T11:55:48.969Z,96608.18
2018-03-30T11:58:17.236Z,96604.87
2018-03-30T12:00:45.514Z,96608.59
2018-03-30T12:03:13.814Z,96601.14
2018-03-30T12:05:42.076Z,96610.84
2018-03-30T12:08:10.361Z,96605.78
2018-03-30T12:10:38.734Z,96605.47
2018-03-30T12:13:08.233Z,96604.60
2018-03-30T12:15:36.486Z,96595.11
2018-03-30T12:18:04.760Z,96597.27
2018-03-30T12:20:33.023Z,96594.45
2018-03-30T12:23:02.086Z,96599.58
2018-03-30T12:25:31.864Z,96581.78
2018-03-30T12:28:00.137Z,96581.80
2018-03-30T12:30:28.428Z,96579.05
2018-03-30T12:32:56.696Z,96573.09
2018-03-30T12:35:24.958Z,96563.55
2018-03-30T12:37:53.238Z,96574.89
2018-03-30T12:40:21.500Z,96576.76
2018-03-30T12:42:49.789Z,96563.25
2018-03-30T12:45:18.064Z,96563.05
2018-03-30T12:47:46.354Z,96561.31
2018-03-30T12:50:14.657Z,96567.74
2018-03-30T12:52:42.946Z,96566.08
2018-03-30T12:55:11.249Z,96554.50
2018-03-30T12:57:40.293Z,96534.38
2018-03-30T13:00:08.581Z,96542.02
2018-03-30T13:02:36.836Z,96548.80
2018-03-30T13:05:05.146Z,96544.16
2018-03-30T13:07:33.433Z,96545.34
2018-03-30T13:10:01.688Z,96542.98
2018-03-30T13:12:30.010Z,96556.84
2018-03-30T13:14:58.278Z,96550.95
2018-03-30T13:17:27.321Z,96541.92
2018-03-30T13:19:55.584Z,96534.23
2018-03-30T13:22:23.877Z,96534.13
2018-03-30T13:24:52.149Z,96529.45
2018-03-30T13:27:20.430Z,96526.95
2018-03-30T13:29:48.700Z,96523.02
2018-03-30T13:32:16.976Z,96529.03
2018-03-30T13:34:45.253Z,96530.04
2018-03-30T13:37:13.529Z,96520.20
2018-03-30T13:39:41.820Z,96514.24
2018-03-30T13:42:10.075Z,96515.39
2018-03-30T13:44:38.340Z,96512.16
2018-03-30T13:47:06.685Z,96499.36
2018-03-30T13:49:34.904Z,96498.66
2018-03-30T13:55:40.812Z,96497.46
2018-03-30T13:58:11.857Z,96488.47
2018-03-30T14:00:47.296Z,96481.12
2018-03-30T14:03:29.868Z,96486.09
2018-03-30T14:12:15.297Z,96481.63
2018-03-30T14:14:43.583Z,96457.25
2018-03-30T14:17:21.167Z,96455.46
2018-03-30T14:19:50.184Z,96447.06
2018-03-30T14:22:33.815Z,96448.70
2018-03-30T14:25:07.497Z,96442.81
2018-03-30T14:30:37.824Z,96425.35
2018-03-30T14:33:08.329Z,96424.13
2018-03-30T14:35:43.317Z,96421.83
2018-03-30T14:41:13.498Z,96415.85
2018-03-30T14:43:58.686Z,96416.88
2018-03-30T14:47:09.451Z,96418.62
2018-03-30T14:49:46.976Z,96409.13
2018-03-30T14:52:27.052Z,96403.09
2018-03-30T14:55:05.617Z,96394.24
2018-03-30T14:57:41.900Z,96391.67
2018-03-30T15:00:17.820Z,96390.27
2018-03-30T15:06:12.273Z,96390.80
2018-03-30T15:08:47.271Z,96381.61
2018-03-30T15:11:37.712Z,96374.11
2018-03-30T15:14:26.004Z,96376.91
2018-03-30T15:16:59.146Z,96380.67
2018-03-30T15:19:35.895Z,96371.05
2018-03-30T15:22:07.789Z,96370.75
2018-03-30T15:24:45.710Z,96371.15
2018-03-30T15:27:28.777Z,96369.97
2018-03-30T15:30:15.281Z,96376.08
2018-03-30T15:35:53.504Z,96382.02
2018-03-30T15:38:22.551Z,96374.78
2018-03-30T15:40:50.828Z,96369.98
2018-03-30T15:43:19.118Z,96362.94
2018-03-30T15:49:02.812Z,96357.51
2018-03-30T15:51:34.479Z,96352.55
2018-03-30T15:54:02.036Z,96351.21
2018-03-30T15:56:37.889Z,96349.91
2018-03-30T15:59:06.195Z,96337.66
2018-03-30T16:01:34.577Z,96347.02
2018-03-30T16:04:02.851Z,96340.81
2018-03-30T16:06:31.267Z,96341.47
2018-03-30T16:09:00.366Z,96341.29
2018-03-30T16:11:34.637Z,96328.19
2018-03-30T16:14:03.060Z,96314.45
2018-03-30T16:16:32.228Z,96300.39
2018-03-30T16:18:59.799Z,96309.23
2018-03-30T16:21:27.520Z,96320.95
2018-03-30T16:23:55.208Z,96313.32
2018-03-30T16:26:23.123Z,96311.80
2018-03-30T16:28:51.000Z,96335.09
2018-03-30T16:31:18.759Z,96344.17
2018-03-30T16:33:46.407Z,96336.97
2018-03-30T16:36:15.874Z,96341.92
2018-03-30T16:38:43.836Z,96333.52
2018-03-30T16:41:11.700Z,96340.34
2018-03-30T16:43:40.281Z,96339.17
2018-03-30T16:46:08.956Z,96338.88
2018-03-30T16:48:36.548Z,96344.44
2018-03-30T16:51:04.065Z,96345.84
2018-03-30T16:53:31.628Z,96347.33
2018-03-30T16:55:59.549Z,96347.78
2018-03-30T16:58:27.671Z,96341.00
2018-03-30T17:00:55.540Z,96339.55
2018-03-30T17:03:23.114Z,96347.97
2018-03-30T17:05:51.066Z,96347.97
2018-03-30T17:08:18.829Z,96341.16
2018-03-30T17:10:47.106Z,96321.78
2018-03-30T17:13:14.972Z,96334.91
2018-03-30T17:15:43.132Z,96341.06
2018-03-30T17:18:12.017Z,96342.16
2018-03-30T17:20:40.690Z,96340.96
2018-03-30T17:23:09.343Z,96352.78
2018-03-30T17:25:37.685Z,96335.23
2018-03-30T17:28:05.962Z,96336.99
2018-03-30T17:30:33.626Z,96331.34
2018-03-30T17:33:01.997Z,96321.34
2018-03-30T17:35:30.388Z,96333.13
2018-03-30T17:37:59.779Z,96339.51
2018-03-30T17:40:28.826Z,96330.55
2018-03-30T17:42:56.924Z,96331.05
2018-03-30T17:45:25.857Z,96329.53
2018-03-30T17:47:55.468Z,96340.34
2018-03-30T17:50:24.472Z,96334.83
2018-03-30T17:52:53.169Z,96344.76
2018-03-30T17:55:22.074Z,96346.34
2018-03-30T17:57:51.986Z,96351.00
2018-03-30T18:00:20.733Z,96347.98
2018-03-30T18:02:50.467Z,96342.09
2018-03-30T18:05:19.281Z,96346.62
2018-03-30T18:07:48.131Z,96340.66
2018-03-30T18:10:16.964Z,96351.03
2018-03-30T18:12:46.134Z,96345.94
2018-03-30T18:15:15.031Z,96352.51
2018-03-30T18:17:44.019Z,96348.44
2018-03-30T18:20:13.113Z,96354.52
2018-03-30T18:22:41.804Z,96357.39
2018-03-30T18:25:10.751Z,96353.67
2018-03-30T18:27:40.908Z,96351.07
2018-03-30T18:30:10.012Z,96350.27
2018-03-30T18:32:38.747Z,96349.45
2018-03-30T18:35:08.611Z,96348.25
2018-03-30T18:37:37.479Z,96346.61
2018-03-30T18:40:06.858Z,96346.55
2018-03-30T18:42:36.985Z,96344.56
2018-03-30T18:45:05.725Z,96344.61
2018-03-30T18:47:34.702Z,96340.00
2018-03-30T18:50:03.795Z,96350.33
2018-03-30T18:52:33.349Z,96353.86
2018-03-30T18:55:02.913Z,96350.64
2018-03-30T18:57:32.008Z,96353.53
2018-03-30T19:00:00.970Z,96355.98
2018-03-30T19:02:29.998Z,96353.22
2018-03-30T19:04:58.903Z,96354.66
2018-03-30T19:07:28.009Z,96354.81
2018-03-30T19:09:57.047Z,96350.52
2018-03-30T19:12:26.211Z,96348.15
2018-03-30T19:14:55.747Z,96353.08
2018-03-30T19:17:24.791Z,96349.08
2018-03-30T19:19:53.006Z,96343.83
2018-03-30T19:22:22.754Z,96343.76
2018-03-30T19:24:51.803Z,96327.64
2018-03-30T19:27:21.286Z,96325.88
2018-03-30T19:29:50.224Z,96323.78
2018-03-30T19:32:18.531Z,96319.37
2018-03-30T19:34:46.754Z,96309.52
2018-03-30T19:37:15.740Z,96301.18
2018-03-30T19:39:44.891Z,96306.52
2018-03-30T19:42:13.867Z,96299.52
2018-03-30T19:44:42.092Z,96299.67
2018-03-30T19:47:10.371Z,96291.52
2018-03-30T19:49:38.550Z,96290.00
2018-03-30T19:52:06.767Z,96300.73
2018-03-30T19:54:35.066Z,96296.92
2018-03-30T19:57:03.334Z,96301.89
2018-03-30T19:59:31.524Z,96293.73
2018-03-30T20:01:59.954Z,96298.37
2018-03-30T20:04:28.129Z,96294.40
2018-03-30T20:06:56.320Z,96296.09
2018-03-30T20:09:24.636Z,96288.53
2018-03-30T20:11:52.771Z,96288.38
2018-03-30T20:14:21.927Z,96282.39
2018-03-30T20:16:51.063Z,96277.85
2018-03-30T20:19:19.288Z,96278.47
2018-03-30T20:21:48.511Z,96281.99
2018-03-30T20:24:16.722Z,96277.55
2018-03-30T20:26:44.899Z,96274.16
2018-03-30T20:29:13.204Z,96274.67
2018-03-30T20:31:41.378Z,96278.47
2018-03-30T20:34:09.540Z,96278.77
2018-03-30T20:36:37.780Z,96276.78
2018-03-30T20:39:05.973Z,96277.22
2018-03-30T20:41:34.211Z,96268.89
2018-03-30T20:44:02.495Z,96260.70
2018-03-30T20:46:30.664Z,96249.20
2018-03-30T20:48:58.842Z,96249.67
2018-03-30T20:51:27.108Z,96259.20
2018-03-30T20:53:55.338Z,96254.77
2018-03-30T20:56:23.497Z,96253.56
2018-03-30T20:58:51.833Z,96254.48
2018-03-30T21:01:20.005Z,96256.16
2018-03-30T21:03:48.484Z,96252.11
2018-03-30T21:06:16.799Z,96249.84
2018-03-30T21:08:44.995Z,96248.36
2018-03-30T21:11:13.216Z,96257.22
2018-03-30T21:13:42.288Z,96257.88
2018-03-30T21:16:10.682Z,96252.94
2018-03-30T21:18:39.680Z,96252.69
2018-03-30T21:21:08.691Z,96252.55
2018-03-30T21:23:36.879Z,96244.42
2018-03-30T21:26:05.026Z,96236.25
2018-03-30T21:28:33.253Z,96243.28
2018-03-30T21:31:01.453Z,96244.58
2018-03-30T21:33:29.514Z,96230.44
2018-03-30T21:35:57.748Z,96228.22
2018-03-30T21:38:25.934Z,96237.81
2018-03-30T21:40:54.101Z,96239.38
2018-03-30T21:43:22.350Z,96240.76
2018-03-30T21:45:50.272Z,96231.34
2018-03-30T21:48:17.863Z,96232.70
2018-03-30T21:50:45.468Z,96243.47
2018-03-30T21:53:13.716Z,96241.52
2018-03-30T21:55:41.245Z,96250.88
2018-03-30T21:58:08.838Z,96255.70
2018-03-30T22:00:36.353Z,96257.31
2018-03-30T22:03:03.826Z,96254.19
2018-03-30T22:05:31.313Z,96269.45
2018-03-30T22:07:58.776Z,96269.23
2018-03-30T22:10:26.246Z,96270.97
2018-03-30T22:12:53.737Z,96276.70
2018-03-30T22:15:21.968Z,96283.22
2018-03-30T22:17:49.432Z,96281.19
2018-03-30T22:20:16.929Z,96286.52
2018-03-30T22:22:45.209Z,96290.32
2018-03-30T22:25:12.694Z,96297.45
2018-03-30T22:27:40.154Z,96293.34
2018-03-30T22:30:07.642Z,96294.57
2018-03-30T22:32:35.128Z,96292.31
2018-03-30T22:35:03.364Z,96281.67
2018-03-30T22:37:30.830Z,96273.43
2018-03-30T22:39:58.344Z,96277.03
2018-03-30T22:42:25.809Z,96275.19
2018-03-30T22:44:53.269Z,96268.80
2018-03-30T22:47:20.753Z,96265.87
2018-03-30T22:49:48.292Z,96266.14
2018-03-30T22:52:15.756Z,96265.46
2018-03-30T22:54:43.241Z,96261.44
2018-03-30T22:57:10.716Z,96264.19
2018-03-30T22:59:38.952Z,96264.52
2018-03-30T23:02:06.443Z,96268.72
2018-03-30T23:04:34.688Z,96261.89
2018-03-30T23:07:02.156Z,96264.21
2018-03-30T23:09:29.633Z,96269.89
2018-03-30T23:11:57.128Z,96269.05
2018-03-30T23:14:24.604Z,96266.00
2018-03-30T23:16:52.083Z,96261.61
2018-03-30T23:19:19.560Z,96258.44
2018-03-30T23:21:47.036Z,96264.73
2018-03-30T23:24:15.292Z,96261.80
2018-03-30T23:26:42.752Z,96269.32
2018-03-30T23:29:10.219Z,96263.16
2018-03-30T23:31:38.469Z,96264.65
2018-03-30T23:34:05.923Z,96267.54
2018-03-30T23:36:33.416Z,96269.32
2018-03-30T23:39:01.676Z,96278.01
2018-03-30T23:41:29.141Z,96272.39
2018-03-30T23:43:57.373Z,96271.02
2018-03-30T23:46:24.846Z,96272.63
2018-03-30T23:48:52.312Z,96275.41
2018-03-30T23:51:19.788Z,96281.03
2018-03-30T23:53:48.047Z,96277.94
2018-03-30T23:56:15.514Z,96277.50
2018-03-30T23:58:42.981Z,96269.26
